createdAt,value
2022-12-31T00:02:05.195Z,14.84
2022-12-31T00:04:31.793Z,14.80
2022-12-31T00:06:58.387Z,14.86
2022-12-31T00:09:24.859Z,14.92
2022-12-31T00:11:51.348Z,14.95
2022-12-31T00:14:17.913Z,15.01
2022-12-31T00:16:44.523Z,15.01
2022-12-31T00:19:12.368Z,14.96
2022-12-31T00:21:39.574Z,14.93
2022-12-31T00:24:07.270Z,14.86
2022-12-31T00:26:35.067Z,14.87
2022-12-31T00:29:02.701Z,14.92
2022-12-31T00:31:31.784Z,14.92
2022-12-31T00:33:59.078Z,14.86
2022-12-31T00:36:30.549Z,14.80
2022-12-31T00:38:58.697Z,14.78
2022-12-31T00:41:26.305Z,14.70
2022-12-31T00:43:52.909Z,14.67
2022-12-31T00:46:19.920Z,14.69
2022-12-31T00:48:47.009Z,14.74
2022-12-31T00:51:16.371Z,14.70
2022-12-31T00:53:43.498Z,14.68
2022-12-31T00:56:15.747Z,14.78
2022-12-31T00:58:42.956Z,14.73
2022-12-31T01:01:10.607Z,14.68
2022-12-31T01:03:37.404Z,14.68
2022-12-31T01:06:04.535Z,14.67
2022-12-31T01:08:31.087Z,14.68
2022-12-31T01:11:16.459Z,14.75
2022-12-31T01:13:42.960Z,14.71
2022-12-31T01:16:11.619Z,14.76
2022-12-31T01:18:38.949Z,14.84
2022-12-31T01:21:07.752Z,14.83
2022-12-31T01:23:34.593Z,14.87
2022-12-31T01:26:03.397Z,14.90
2022-12-31T01:28:30.307Z,14.82
2022-12-31T01:30:57.240Z,14.76
2022-12-31T01:33:24.015Z,14.70
2022-12-31T01:35:50.757Z,14.66
2022-12-31T01:38:17.279Z,14.61
2022-12-31T01:40:44.241Z,14.56
2022-12-31T01:43:18.973Z,14.51
2022-12-31T01:45:52.540Z,14.52
2022-12-31T01:48:25.375Z,14.50
2022-12-31T01:50:53.601Z,14.47
2022-12-31T01:53:20.927Z,14.36
2022-12-31T01:55:56.641Z,14.18
2022-12-31T01:58:34.538Z,14.13
2022-12-31T02:01:01.161Z,14.10
2022-12-31T02:03:29.048Z,14.07
2022-12-31T02:06:20.150Z,14.08
2022-12-31T02:08:47.447Z,14.06
2022-12-31T02:11:34.429Z,14.01
2022-12-31T02:14:08.528Z,14.03
2022-12-31T02:17:02.019Z,14.08
2022-12-31T02:19:42.945Z,14.07
2022-12-31T02:22:41.507Z,14.05
2022-12-31T02:25:10.861Z,14.03
2022-12-31T02:28:19.813Z,14.02
2022-12-31T02:30:53.250Z,14.08
2022-12-31T02:33:31.264Z,14.06
2022-12-31T02:36:13.206Z,14.07
2022-12-31T02:38:44.321Z,13.96
2022-12-31T02:41:35.722Z,13.88
2022-12-31T02:44:19.644Z,13.76
2022-12-31T02:46:51.644Z,13.65
2022-12-31T02:49:26.269Z,13.60
2022-12-31T02:52:06.519Z,13.55
2022-12-31T02:54:42.495Z,13.50
2022-12-31T02:57:25.847Z,13.47
2022-12-31T03:00:23.961Z,13.43
2022-12-31T03:02:52.677Z,13.43
2022-12-31T03:05:29.465Z,13.41
2022-12-31T03:07:56.080Z,13.43
2022-12-31T03:10:22.616Z,13.43
2022-12-31T03:12:49.984Z,13.37
2022-12-31T03:15:22.569Z,13.31
2022-12-31T03:18:13.544Z,13.32
2022-12-31T03:21:24.244Z,13.38
2022-12-31T03:24:09.113Z,13.42
2022-12-31T03:26:35.837Z,13.45
2022-12-31T03:29:02.337Z,13.45
2022-12-31T03:31:28.892Z,13.41
2022-12-31T03:33:55.468Z,13.40
2022-12-31T03:36:21.963Z,13.28
2022-12-31T03:38:52.542Z,13.24
2022-12-31T03:41:19.351Z,13.35
2022-12-31T03:43:45.903Z,13.35
2022-12-31T03:46:12.398Z,13.46
2022-12-31T03:48:39.890Z,13.45
2022-12-31T03:51:06.333Z,13.48
2022-12-31T03:53:34.787Z,13.44
2022-12-31T03:56:01.249Z,13.45
2022-12-31T03:58:27.762Z,13.40
2022-12-31T04:00:54.325Z,13.31
2022-12-31T04:03:20.944Z,13.27
2022-12-31T04:05:55.489Z,13.32
2022-12-31T04:08:22.577Z,13.29
2022-12-31T04:10:49.053Z,13.20
2022-12-31T04:13:15.553Z,13.20
2022-12-31T04:15:42.070Z,13.15
2022-12-31T04:18:08.537Z,13.04
2022-12-31T04:20:35.038Z,13.01
2022-12-31T04:23:01.503Z,13.06
2022-12-31T04:25:27.980Z,13.13
2022-12-31T04:27:54.523Z,13.08
2022-12-31T04:30:21.043Z,13.05
2022-12-31T04:32:47.562Z,13.11
2022-12-31T04:35:14.022Z,13.18
2022-12-31T04:37:40.588Z,13.22
2022-12-31T04:40:08.360Z,13.28
2022-12-31T04:42:35.363Z,13.23
2022-12-31T04:45:01.863Z,13.22
2022-12-31T04:47:28.456Z,13.20
2022-12-31T04:49:54.955Z,13.35
2022-12-31T04:52:23.044Z,13.42
2022-12-31T04:54:50.012Z,13.54
2022-12-31T04:57:16.624Z,13.55
2022-12-31T04:59:43.134Z,13.54
2022-12-31T05:02:09.849Z,13.37
2022-12-31T05:04:36.408Z,13.42
2022-12-31T05:07:03.103Z,13.56
2022-12-31T05:09:29.758Z,13.51
2022-12-31T05:11:56.593Z,13.36
2022-12-31T05:14:23.308Z,13.27
2022-12-31T05:16:50.568Z,13.23
2022-12-31T05:19:17.098Z,13.21
2022-12-31T05:21:43.606Z,13.21
2022-12-31T05:24:10.099Z,13.11
2022-12-31T05:26:36.589Z,13.16
2022-12-31T05:29:03.051Z,13.13
2022-12-31T05:31:29.596Z,13.07
2022-12-31T05:33:56.275Z,12.96
2022-12-31T05:36:22.785Z,13.01
2022-12-31T05:38:49.234Z,12.93
2022-12-31T05:41:15.785Z,12.92
2022-12-31T05:43:42.224Z,12.84
2022-12-31T05:46:08.942Z,12.84
2022-12-31T05:48:35.522Z,12.69
2022-12-31T05:51:02.048Z,12.65
2022-12-31T05:53:28.641Z,12.60
2022-12-31T05:55:55.087Z,12.65
2022-12-31T05:58:21.536Z,12.61
2022-12-31T06:00:48.067Z,12.66
2022-12-31T06:03:14.684Z,12.69
2022-12-31T06:05:42.899Z,12.64
2022-12-31T06:08:11.104Z,12.66
2022-12-31T06:10:38.359Z,12.61
2022-12-31T06:13:05.005Z,12.66
2022-12-31T06:15:31.733Z,12.63
2022-12-31T06:17:58.334Z,12.63
2022-12-31T06:20:24.817Z,12.63
2022-12-31T06:22:51.305Z,12.56
2022-12-31T06:25:17.814Z,12.42
2022-12-31T06:27:44.282Z,12.43
2022-12-31T06:30:11.476Z,12.41
2022-12-31T06:32:39.373Z,12.33
2022-12-31T06:35:06.746Z,12.34
2022-12-31T06:37:33.257Z,12.35
2022-12-31T06:39:59.785Z,12.23
2022-12-31T06:42:30.780Z,12.27
2022-12-31T06:44:58.371Z,12.24
2022-12-31T06:47:25.782Z,12.14
2022-12-31T06:49:52.686Z,12.22
2022-12-31T06:52:19.437Z,12.13
2022-12-31T06:54:46.329Z,12.17
2022-12-31T06:57:13.248Z,12.05
2022-12-31T06:59:39.961Z,12.01
2022-12-31T07:02:44.125Z,12.00
2022-12-31T07:05:25.924Z,12.03
2022-12-31T07:08:20.172Z,12.00
2022-12-31T07:11:00.132Z,12.02
2022-12-31T07:13:48.056Z,12.07
2022-12-31T07:16:32.638Z,11.87
2022-12-31T07:19:10.992Z,11.88
2022-12-31T07:21:41.113Z,11.92
2022-12-31T07:24:09.804Z,11.84
2022-12-31T07:27:33.480Z,11.83
2022-12-31T07:30:00.002Z,11.81
2022-12-31T07:32:44.633Z,11.77
2022-12-31T07:35:34.760Z,11.76
2022-12-31T07:38:19.863Z,11.75
2022-12-31T07:41:07.338Z,11.73
2022-12-31T07:43:35.640Z,11.71
2022-12-31T07:46:39.593Z,11.72
2022-12-31T07:49:11.219Z,11.59
2022-12-31T07:51:38.484Z,11.67
2022-12-31T07:54:08.800Z,11.62
2022-12-31T07:56:40.289Z,11.59
2022-12-31T07:59:36.748Z,11.64
2022-12-31T08:02:32.326Z,11.67
2022-12-31T08:05:23.333Z,11.68
2022-12-31T08:08:11.110Z,11.75
2022-12-31T08:10:46.485Z,11.82
2022-12-31T08:13:13.309Z,11.74
2022-12-31T08:15:40.528Z,11.78
2022-12-31T08:18:07.801Z,11.91
2022-12-31T08:20:43.940Z,11.84
2022-12-31T08:24:04.605Z,11.79
2022-12-31T08:26:36.865Z,11.75
2022-12-31T08:29:30.026Z,11.79
2022-12-31T08:32:12.718Z,11.85
2022-12-31T08:34:56.070Z,11.68
2022-12-31T08:37:31.600Z,11.77
2022-12-31T08:40:13.046Z,11.79
2022-12-31T08:42:42.494Z,11.91
2022-12-31T08:45:20.058Z,12.32
2022-12-31T08:48:02.823Z,13.01
2022-12-31T08:50:30.229Z,13.30
2022-12-31T08:52:57.149Z,13.45
2022-12-31T08:55:23.984Z,13.79
2022-12-31T08:58:27.419Z,14.06
2022-12-31T09:00:57.992Z,14.37
2022-12-31T09:03:42.079Z,14.80
2022-12-31T09:06:33.774Z,14.98
2022-12-31T09:09:19.783Z,15.66
2022-12-31T09:11:57.398Z,15.69
2022-12-31T09:14:33.012Z,16.06
2022-12-31T09:17:02.511Z,16.08
2022-12-31T09:19:29.029Z,16.35
2022-12-31T09:21:56.283Z,16.58
2022-12-31T09:24:23.154Z,16.61
2022-12-31T09:27:28.345Z,17.09
2022-12-31T09:30:01.002Z,16.94
2022-12-31T09:32:32.762Z,16.99
2022-12-31T09:35:09.766Z,16.47
2022-12-31T09:37:49.394Z,16.30
2022-12-31T09:40:37.547Z,16.20
2022-12-31T09:43:22.758Z,15.92
2022-12-31T09:46:07.336Z,15.88
2022-12-31T09:49:08.068Z,16.24
2022-12-31T09:52:25.374Z,16.17
2022-12-31T09:55:24.113Z,16.54
2022-12-31T09:57:56.590Z,16.13
2022-12-31T10:00:35.548Z,16.33
2022-12-31T10:03:38.221Z,16.18
2022-12-31T10:06:24.526Z,16.05
2022-12-31T10:09:21.218Z,16.19
2022-12-31T10:12:04.030Z,16.35
2022-12-31T10:15:07.894Z,16.41
2022-12-31T10:17:40.519Z,16.58
2022-12-31T10:20:51.714Z,17.03
2022-12-31T10:23:27.533Z,17.26
2022-12-31T10:26:22.395Z,17.30
2022-12-31T10:28:51.585Z,17.07
2022-12-31T10:31:48.681Z,17.14
2022-12-31T10:34:33.563Z,17.18
2022-12-31T10:37:17.634Z,17.50
2022-12-31T10:39:54.265Z,17.34
2022-12-31T10:43:17.900Z,17.62
2022-12-31T10:46:35.533Z,17.95
2022-12-31T10:49:39.800Z,18.23
2022-12-31T10:52:21.293Z,18.10
2022-12-31T10:55:10.439Z,18.34
2022-12-31T10:57:52.071Z,18.36
2022-12-31T11:00:20.963Z,18.78
2022-12-31T11:03:28.865Z,18.99
2022-12-31T11:06:33.186Z,18.71
2022-12-31T11:09:08.631Z,18.85
2022-12-31T11:11:38.199Z,18.95
2022-12-31T11:14:23.307Z,18.52
2022-12-31T11:17:31.973Z,17.76
2022-12-31T11:20:24.561Z,17.63
2022-12-31T11:23:02.312Z,17.53
2022-12-31T11:25:37.876Z,17.22
2022-12-31T11:28:13.385Z,17.12
2022-12-31T11:30:58.137Z,16.94
2022-12-31T11:33:50.143Z,17.02
2022-12-31T11:36:43.355Z,17.06
2022-12-31T11:39:42.072Z,17.11
2022-12-31T11:42:40.688Z,17.04
2022-12-31T11:45:37.936Z,16.95
2022-12-31T11:48:30.129Z,16.83
2022-12-31T11:51:31.434Z,16.94
2022-12-31T11:54:35.293Z,16.73
2022-12-31T11:57:34.161Z,16.82
2022-12-31T12:00:14.376Z,16.70
2022-12-31T12:02:45.910Z,16.48
2022-12-31T12:05:15.169Z,16.55
2022-12-31T12:07:41.748Z,16.63
2022-12-31T12:10:24.150Z,16.59
2022-12-31T12:12:52.236Z,16.35
2022-12-31T12:15:24.215Z,16.35
2022-12-31T12:17:55.286Z,16.35
2022-12-31T12:20:30.382Z,16.32
2022-12-31T12:22:58.750Z,16.26
2022-12-31T12:25:35.782Z,16.32
2022-12-31T12:28:16.670Z,16.22
2022-12-31T12:30:44.101Z,16.27
2022-12-31T12:33:19.187Z,16.20
2022-12-31T12:35:46.742Z,16.16
2022-12-31T12:38:19.187Z,16.22
2022-12-31T12:41:04.037Z,16.27
2022-12-31T12:43:33.921Z,16.02
2022-12-31T12:46:30.755Z,16.04
2022-12-31T12:48:58.491Z,16.05
2022-12-31T12:51:32.301Z,16.06
2022-12-31T12:54:17.371Z,16.06
2022-12-31T12:57:00.898Z,16.11
2022-12-31T12:59:30.224Z,16.12
2022-12-31T13:02:21.718Z,16.10
2022-12-31T13:05:26.005Z,16.02
2022-12-31T13:08:12.656Z,16.06
2022-12-31T13:10:41.878Z,16.04
2022-12-31T13:13:48.794Z,15.90
2022-12-31T13:16:23.934Z,15.93
2022-12-31T13:19:02.172Z,15.95
2022-12-31T13:21:43.691Z,16.07
2022-12-31T13:24:28.951Z,16.16
2022-12-31T13:27:04.124Z,16.18
2022-12-31T13:29:34.998Z,16.20
2022-12-31T13:32:05.425Z,15.98
2022-12-31T13:34:37.284Z,16.01
2022-12-31T13:37:13.072Z,15.91
2022-12-31T13:39:43.301Z,15.94
2022-12-31T13:42:25.541Z,15.85
2022-12-31T13:44:59.395Z,15.75
2022-12-31T13:47:30.113Z,15.81
2022-12-31T13:50:02.760Z,15.86
2022-12-31T13:52:38.566Z,15.80
2022-12-31T13:55:13.625Z,15.80
2022-12-31T13:57:49.444Z,15.62
2022-12-31T14:00:29.970Z,15.68
2022-12-31T14:03:14.854Z,15.67
2022-12-31T14:05:56.296Z,15.70
2022-12-31T14:08:22.863Z,15.67
2022-12-31T14:11:48.711Z,15.60
2022-12-31T14:14:47.719Z,15.46
2022-12-31T14:17:31.415Z,15.44
2022-12-31T14:20:26.995Z,15.40
2022-12-31T14:23:15.231Z,15.42
2022-12-31T14:25:49.589Z,15.30
2022-12-31T14:28:21.686Z,15.24
2022-12-31T14:30:54.928Z,15.22
2022-12-31T14:33:24.148Z,15.23
2022-12-31T14:36:06.664Z,15.14
2022-12-31T14:38:45.570Z,15.21
2022-12-31T14:41:44.876Z,15.13
2022-12-31T14:44:42.212Z,15.13
2022-12-31T14:47:23.877Z,15.03
2022-12-31T14:50:11.496Z,14.95
2022-12-31T14:52:53.813Z,15.03
2022-12-31T14:55:24.891Z,15.06
2022-12-31T14:58:26.635Z,15.06
2022-12-31T15:00:55.832Z,15.03
2022-12-31T15:03:27.001Z,14.90
2022-12-31T15:06:15.754Z,14.93
2022-12-31T15:09:16.414Z,14.90
2022-12-31T15:12:24.845Z,14.86
2022-12-31T15:15:20.093Z,14.88
2022-12-31T15:18:07.555Z,14.75
2022-12-31T15:21:13.501Z,14.70
2022-12-31T15:23:42.320Z,14.64
2022-12-31T15:26:23.245Z,14.61
2022-12-31T15:29:02.578Z,14.50
2022-12-31T15:31:30.026Z,14.49
2022-12-31T15:34:07.880Z,14.51
2022-12-31T15:36:38.496Z,14.46
2022-12-31T15:39:23.407Z,14.33
2022-12-31T15:42:35.485Z,14.26
2022-12-31T15:44:55.026Z,14.21
2022-12-31T15:47:33.428Z,14.20
2022-12-31T15:50:04.099Z,14.27
2022-12-31T15:52:40.344Z,14.15
2022-12-31T15:55:07.782Z,14.07
2022-12-31T15:57:41.025Z,14.05
2022-12-31T16:00:17.926Z,13.98
2022-12-31T16:02:53.270Z,13.93
2022-12-31T16:05:23.441Z,14.01
2022-12-31T16:08:01.570Z,13.82
2022-12-31T16:10:30.950Z,13.67
2022-12-31T16:12:59.550Z,13.88
2022-12-31T16:15:30.264Z,13.84
2022-12-31T16:18:36.003Z,13.84
2022-12-31T16:21:02.526Z,13.85
2022-12-31T16:23:28.989Z,13.90
2022-12-31T16:25:59.784Z,13.68
2022-12-31T16:28:32.239Z,13.70
2022-12-31T16:31:08.271Z,13.73
2022-12-31T16:33:34.855Z,13.64
2022-12-31T16:36:01.869Z,13.65
2022-12-31T16:38:33.686Z,13.57
2022-12-31T16:41:02.938Z,13.55
2022-12-31T16:43:40.519Z,13.55
2022-12-31T16:46:26.825Z,13.47
2022-12-31T16:48:58.213Z,13.45
2022-12-31T16:51:30.542Z,13.46
2022-12-31T16:53:58.173Z,13.49
2022-12-31T16:56:36.927Z,13.53
2022-12-31T16:59:12.109Z,13.40
2022-12-31T17:01:39.054Z,13.38
2022-12-31T17:04:11.026Z,13.39
2022-12-31T17:06:37.773Z,13.26
2022-12-31T17:09:12.799Z,13.33
2022-12-31T17:11:56.441Z,13.26
2022-12-31T17:14:26.845Z,13.19
2022-12-31T17:17:03.570Z,13.11
2022-12-31T17:19:45.977Z,13.12
2022-12-31T17:22:17.624Z,13.09
2022-12-31T17:24:47.827Z,13.19
2022-12-31T17:27:14.773Z,13.15
2022-12-31T17:29:41.773Z,13.15
2022-12-31T17:32:28.588Z,13.11
2022-12-31T17:34:55.080Z,13.05
2022-12-31T17:37:31.372Z,13.10
2022-12-31T17:40:40.520Z,13.11
2022-12-31T17:42:48.836Z,13.08
2022-12-31T17:45:21.371Z,13.03
2022-12-31T17:47:55.644Z,13.06
2022-12-31T17:50:24.669Z,13.00
2022-12-31T17:52:55.609Z,12.89
2022-12-31T17:55:22.056Z,12.83
2022-12-31T17:57:53.260Z,12.88
2022-12-31T18:00:25.170Z,12.76
2022-12-31T18:02:52.178Z,12.72
2022-12-31T18:05:23.662Z,12.69
2022-12-31T18:07:50.411Z,12.66
2022-12-31T18:10:19.258Z,12.68
2022-12-31T18:12:47.436Z,12.66
2022-12-31T18:15:20.061Z,12.63
2022-12-31T18:17:46.585Z,12.55
2022-12-31T18:20:13.536Z,12.55
2022-12-31T18:22:42.248Z,12.51
2022-12-31T18:25:20.649Z,12.54
2022-12-31T18:27:48.094Z,12.51
2022-12-31T18:30:18.241Z,12.53
2022-12-31T18:32:46.193Z,12.51
2022-12-31T18:35:33.226Z,12.29
2022-12-31T18:38:03.481Z,12.20
2022-12-31T18:40:30.180Z,12.31
2022-12-31T18:43:02.728Z,12.28
2022-12-31T18:45:31.295Z,12.30
2022-12-31T18:47:57.825Z,12.35
2022-12-31T18:50:24.412Z,12.35
2022-12-31T18:52:50.877Z,12.34
2022-12-31T18:55:23.808Z,12.31
2022-12-31T18:57:50.516Z,12.33
2022-12-31T19:00:17.270Z,12.25
2022-12-31T19:02:43.817Z,12.34
2022-12-31T19:05:31.754Z,12.20
2022-12-31T19:07:58.385Z,12.28
2022-12-31T19:10:26.514Z,12.14
2022-12-31T19:12:53.745Z,12.19
2022-12-31T19:15:22.857Z,12.14
2022-12-31T19:17:49.305Z,12.09
2022-12-31T19:20:16.126Z,12.00
2022-12-31T19:22:42.652Z,11.87
2022-12-31T19:25:21.741Z,11.89
2022-12-31T19:27:49.247Z,11.91
2022-12-31T19:30:18.337Z,11.88
2022-12-31T19:32:45.093Z,12.00
2022-12-31T19:35:13.363Z,11.99
2022-12-31T19:37:40.983Z,11.93
2022-12-31T19:40:22.549Z,11.99
2022-12-31T19:42:50.004Z,12.12
2022-12-31T19:45:19.506Z,12.04
2022-12-31T19:47:46.690Z,11.99
2022-12-31T19:50:19.873Z,11.96
2022-12-31T19:52:48.632Z,11.85
2022-12-31T19:55:18.650Z,11.82
2022-12-31T19:57:46.579Z,11.79
2022-12-31T20:00:16.534Z,11.84
2022-12-31T20:02:45.168Z,11.79
2022-12-31T20:05:13.386Z,11.91
2022-12-31T20:07:40.013Z,11.79
2022-12-31T20:10:07.682Z,11.78
2022-12-31T20:12:39.066Z,11.77
2022-12-31T20:15:09.305Z,11.80
2022-12-31T20:17:36.582Z,12.10
2022-12-31T20:20:03.927Z,11.99
2022-12-31T20:22:30.507Z,11.99
2022-12-31T20:24:58.208Z,11.94
2022-12-31T20:27:24.761Z,11.85
2022-12-31T20:29:51.290Z,11.78
2022-12-31T20:32:17.825Z,11.64
2022-12-31T20:34:44.381Z,11.52
2022-12-31T20:37:10.969Z,11.61
2022-12-31T20:39:37.719Z,11.49
2022-12-31T20:42:04.675Z,11.54
2022-12-31T20:44:31.259Z,11.38
2022-12-31T20:46:57.839Z,11.26
2022-12-31T20:49:44.827Z,11.02
2022-12-31T20:52:10.923Z,10.90
2022-12-31T20:54:37.550Z,10.91
2022-12-31T20:57:04.218Z,10.81
2022-12-31T20:59:30.725Z,10.73
2022-12-31T21:02:20.401Z,10.77
2022-12-31T21:04:45.463Z,10.72
2022-12-31T21:07:12.189Z,10.68
2022-12-31T21:09:38.694Z,10.79
2022-12-31T21:12:23.739Z,10.77
2022-12-31T21:14:50.252Z,10.56
2022-12-31T21:17:16.743Z,10.49
2022-12-31T21:19:43.279Z,10.48
2022-12-31T21:22:09.791Z,10.52
2022-12-31T21:24:36.323Z,10.51
2022-12-31T21:27:02.847Z,10.41
2022-12-31T21:29:34.329Z,10.27
2022-12-31T21:32:01.349Z,10.15
2022-12-31T21:34:27.852Z,9.99
2022-12-31T21:36:54.390Z,10.02
2022-12-31T21:39:20.932Z,10.14
2022-12-31T21:41:53.325Z,10.09
2022-12-31T21:44:21.680Z,10.10
2022-12-31T21:47:24.799Z,10.10
2022-12-31T21:49:35.799Z,10.18
2022-12-31T21:52:20.801Z,10.04
2022-12-31T21:55:05.664Z,9.96
2022-12-31T21:57:46.391Z,9.90
2022-12-31T22:00:44.333Z,9.89
2022-12-31T22:03:24.845Z,10.07
2022-12-31T22:05:57.235Z,10.26
2022-12-31T22:08:23.907Z,10.26
2022-12-31T22:10:53.016Z,10.33
2022-12-31T22:13:20.123Z,10.27
2022-12-31T22:15:48.469Z,10.21
2022-12-31T22:18:16.305Z,10.01
2022-12-31T22:20:43.004Z,9.84
2022-12-31T22:23:10.052Z,9.68
2022-12-31T22:25:38.347Z,9.77
2022-12-31T22:28:37.602Z,9.77
2022-12-31T22:30:52.934Z,10.31
2022-12-31T22:33:19.530Z,9.99
2022-12-31T22:36:00.472Z,10.10
2022-12-31T22:38:28.586Z,10.15
2022-12-31T22:41:21.970Z,10.25
2022-12-31T22:43:50.978Z,10.25
2022-12-31T22:46:19.334Z,10.17
2022-12-31T22:48:46.503Z,10.26
2022-12-31T22:51:14.826Z,10.41
2022-12-31T22:53:43.324Z,10.30
2022-12-31T22:56:12.440Z,10.34
2022-12-31T22:58:39.499Z,10.41
2022-12-31T23:01:07.671Z,10.50
2022-12-31T23:03:34.448Z,10.36
2022-12-31T23:06:01.024Z,10.48
2022-12-31T23:08:27.551Z,10.45
2022-12-31T23:11:00.717Z,10.49
2022-12-31T23:13:50.808Z,10.41
2022-12-31T23:16:37.154Z,10.48
2022-12-31T23:19:22.672Z,10.46
2022-12-31T23:22:07.585Z,10.41
2022-12-31T23:24:34.270Z,10.45
2022-12-31T23:27:00.838Z,10.48
2022-12-31T23:29:27.357Z,10.55
2022-12-31T23:31:54.222Z,10.51
2022-12-31T23:34:21.093Z,10.40
2022-12-31T23:36:47.632Z,10.44
2022-12-31T23:39:14.148Z,10.46
2022-12-31T23:41:40.736Z,10.45
2022-12-31T23:44:07.461Z,10.35
2022-12-31T23:46:34.030Z,10.39
2022-12-31T23:49:00.528Z,10.36
2022-12-31T23:51:27.061Z,10.26
2022-12-31T23:53:53.649Z,10.27
2022-12-31T23:56:23.718Z,10.21
2022-12-31T23:58:55.343Z,10.16
